Aeroporto :
LOGIN :

Iscrizione | Disclaimer

   EN    FR    IT 

 










Sommario :    VFR   VFR Marginale   IFR   IFR Intensivo   IFR Molto Intensivo
Visibilità : 
Base nubi : 
>= 8 km
>= 3000ft
5 / 8 km
1000 / 3000 ft
1500m / 5 km
500 / 1000 ft
800 / 1500m
200 / 500 ft
< 800m
< 200 ft
Simboli :   Temporali  Nebbia  Neve Forte  Precipitazioni Forti  Vento > 20 kt
SIGMETs :   Varie  Temporali  Ghiacco  Turbolenza  Onda orograficha  Ceneri Vulcaniche






- Altitudine del aeroporto : 885 ft
- Codice IATA : BAS


LFSB - Bale-Mulhouse

ULTIMO METAR :
  • 230800Z AUTO 25004KT 190V310 9999 4400 FEW018/// SCT084/// BKN150/// 15/12 Q1017

METARs OBSOLETI :
  • 230730Z AUTO 28004KT 240V360 CAVOK 14/11 Q1017 TEMPO SHRA SCT025CB
  • 230700Z AUTO VRB01KT CAVOK 14/11 Q1017 TEMPO SHRA SCT025CB
  • 230630Z AUTO 09003KT 9999 FEW048 BKN180 BKN200 13/11 Q1017 TEMPO SHRA SCT025CB
  • 230600Z AUTO 13004KT CAVOK 12/11 Q1017 BECMG FEW025CB BKN030
  • 230530Z AUTO VRB02KT CAVOK 11/11 Q1016 BECMG FEW025CB BKN030
  • 230500Z AUTO VRB03KT CAVOK 11/10 Q1016 BECMG FEW025TCU BKN040
  • 230430Z AUTO VRB02KT CAVOK 10/10 Q1016 BECMG FEW025TCU BKN040
  • 230400Z AUTO VRB03KT CAVOK 09/09 Q1016 BECMG FEW025TCU BKN040
  • 230330Z AUTO VRB02KT CAVOK 10/09 Q1016 BECMG FEW025TCU BKN040

TAF TAF LFSB
Valido dal 23 a 06 ore il 24 a 06 ore UTC


230500Z 2306/2406 26003KT 9999 FEW025CB BKN030
TEMPO 2308/2321 SHRA SCT025CB
PROB40
TEMPO 2310/2318 3000 TSRA
BECMG 2321/2323 CAVOK
Met : +33 3 89 90 31 11



MetMap, La meteo Aeronautica in un colpo d'occhio ! - Copyright ORBIFLY Dicembre 2007 - Disclaimer

ORBIFLY MET'MAP TEAM :

Programmazione e sviluppo : Alexandra Zaïnal
Concezione : Baudouin d'Aumeries
Supporto tecnico e logistico : Manuel Goepfert
Aiuto : Marc-Olivier Méhu
Aiuto per la traduzione : Arnaldo La Scala




FONTI E CREDITI :

   NOAA